createdAt,value
2022-08-03T00:00:34.439Z,58.06
2022-08-03T00:01:34.229Z,58.15
2022-08-03T00:02:34.311Z,58.25
2022-08-03T00:03:34.288Z,57.57
2022-08-03T00:04:34.547Z,58.25
2022-08-03T00:05:34.364Z,57.86
2022-08-03T00:06:37.144Z,58.06
2022-08-03T00:07:34.687Z,58.06
2022-08-03T00:08:40.177Z,57.96
2022-08-03T00:09:35.678Z,58.06
2022-08-03T00:10:34.550Z,58.06
2022-08-03T00:11:34.582Z,58.35
2022-08-03T00:12:34.614Z,58.35
2022-08-03T00:13:34.653Z,58.35
2022-08-03T00:14:34.943Z,58.45
2022-08-03T00:15:34.726Z,58.35
2022-08-03T00:16:34.803Z,58.35
2022-08-03T00:17:53.531Z,58.45
2022-08-03T00:18:34.837Z,58.35
2022-08-03T00:19:34.904Z,58.15
2022-08-03T00:20:34.905Z,58.45
2022-08-03T00:21:35.193Z,58.15
2022-08-03T00:22:34.980Z,58.15
2022-08-03T00:23:52.257Z,58.35
2022-08-03T00:24:35.051Z,58.45
2022-08-03T00:25:35.096Z,58.25
2022-08-03T00:26:35.153Z,58.35
2022-08-03T00:27:35.182Z,58.25
2022-08-03T00:28:35.497Z,58.15
2022-08-03T00:29:59.680Z,58.15
2022-08-03T00:30:35.377Z,58.25
2022-08-03T00:31:51.582Z,58.25
2022-08-03T00:32:35.340Z,58.06
2022-08-03T00:33:58.071Z,58.06
2022-08-03T00:34:57.927Z,58.15
2022-08-03T00:35:50.426Z,58.25
2022-08-03T00:37:40.581Z,58.06
2022-08-03T00:38:35.563Z,58.06
2022-08-03T00:39:35.599Z,57.96
2022-08-03T00:40:35.640Z,58.35
2022-08-03T00:42:36.029Z,58.25
2022-08-03T00:43:35.756Z,58.45
2022-08-03T00:44:35.813Z,58.64
2022-08-03T00:46:35.854Z,58.25
2022-08-03T00:47:35.889Z,58.42
2022-08-03T00:49:36.031Z,58.45
2022-08-03T00:50:36.248Z,58.35
2022-08-03T00:51:36.032Z,58.13
2022-08-03T00:52:36.068Z,58.74
2022-08-03T00:54:36.145Z,58.32
2022-08-03T00:55:36.181Z,58.81
2022-08-03T00:56:36.214Z,58.71
2022-08-03T00:57:36.501Z,58.64
2022-08-03T00:58:36.286Z,58.84
2022-08-03T00:59:36.324Z,58.91
2022-08-03T01:00:36.359Z,58.81
2022-08-03T01:01:36.445Z,59.00
2022-08-03T01:02:36.433Z,58.74
2022-08-03T01:03:36.472Z,58.84
2022-08-03T01:04:36.807Z,59.00
2022-08-03T01:05:36.538Z,59.03
2022-08-03T01:07:36.631Z,59.00
2022-08-03T01:08:36.649Z,59.00
2022-08-03T01:09:36.688Z,59.03
2022-08-03T01:10:36.720Z,59.00
2022-08-03T01:11:37.065Z,59.00
2022-08-03T01:12:36.790Z,59.00
2022-08-03T01:14:03.438Z,58.71
2022-08-03T01:14:36.866Z,58.91
2022-08-03T01:15:36.903Z,58.81
2022-08-03T01:16:37.274Z,58.51
2022-08-03T01:17:36.973Z,58.51
2022-08-03T01:18:37.260Z,58.71
2022-08-03T01:19:37.050Z,58.71
2022-08-03T01:20:37.132Z,58.81
2022-08-03T01:21:37.120Z,58.61
2022-08-03T01:22:37.156Z,58.61
2022-08-03T01:23:37.191Z,58.81
2022-08-03T01:24:37.528Z,58.81
2022-08-03T01:25:37.264Z,58.81
2022-08-03T01:26:37.297Z,58.61
2022-08-03T01:28:37.372Z,58.61
2022-08-03T01:29:37.406Z,58.81
2022-08-03T01:30:37.694Z,58.71
2022-08-03T01:32:58.410Z,58.81
2022-08-03T01:32:59.600Z,58.61
2022-08-03T01:33:37.551Z,58.91
2022-08-03T01:34:37.594Z,58.81
2022-08-03T01:35:38.726Z,58.81
2022-08-03T01:36:37.961Z,58.91
2022-08-03T01:37:38.737Z,58.71
2022-08-03T01:38:37.736Z,58.71
2022-08-03T01:39:37.767Z,58.61
2022-08-03T01:40:37.802Z,58.71
2022-08-03T01:41:37.841Z,58.71
2022-08-03T01:42:37.878Z,58.91
2022-08-03T01:43:55.072Z,58.91
2022-08-03T01:44:37.950Z,58.91
2022-08-03T01:45:37.992Z,58.81
2022-08-03T01:46:38.040Z,58.91
2022-08-03T01:47:38.059Z,59.10
2022-08-03T01:48:38.099Z,58.91
2022-08-03T01:49:38.232Z,59.30
2022-08-03T01:50:38.418Z,59.30
2022-08-03T01:51:57.941Z,59.39
2022-08-03T01:52:38.238Z,59.00
2022-08-03T01:53:38.272Z,59.39
2022-08-03T01:54:38.311Z,59.39
2022-08-03T01:55:38.354Z,59.39
2022-08-03T01:56:38.390Z,59.39
2022-08-03T01:58:05.268Z,59.10
2022-08-03T01:58:38.462Z,59.39
2022-08-03T01:59:38.488Z,59.00
2022-08-03T02:00:38.603Z,59.00
2022-08-03T02:02:25.198Z,59.10
2022-08-03T02:02:38.812Z,59.10
2022-08-03T02:03:38.652Z,59.10
2022-08-03T02:04:38.684Z,59.20
2022-08-03T02:05:38.710Z,59.10
2022-08-03T02:07:38.779Z,59.20
2022-08-03T02:08:38.817Z,59.20
2022-08-03T02:11:38.930Z,59.30
2022-08-03T02:12:39.257Z,59.30
2022-08-03T02:14:39.037Z,59.20
2022-08-03T02:15:39.074Z,59.00
2022-08-03T02:17:40.307Z,59.39
2022-08-03T02:18:39.173Z,59.10
2022-08-03T02:19:39.530Z,59.20
2022-08-03T02:20:39.272Z,59.20
2022-08-03T02:21:56.271Z,59.20
2022-08-03T02:22:39.332Z,59.10
2022-08-03T02:23:39.356Z,59.20
2022-08-03T02:24:39.389Z,59.30
2022-08-03T02:25:39.429Z,59.30
2022-08-03T02:26:39.716Z,59.00
2022-08-03T02:27:43.490Z,59.00
2022-08-03T02:28:39.645Z,59.00
2022-08-03T02:29:40.954Z,59.10
2022-08-03T02:30:39.602Z,59.00
2022-08-03T02:31:39.640Z,58.91
2022-08-03T02:32:39.676Z,59.10
2022-08-03T02:33:40.064Z,59.10
2022-08-03T02:34:39.752Z,58.91
2022-08-03T02:35:39.795Z,58.91
2022-08-03T02:36:39.844Z,58.87
2022-08-03T02:37:41.402Z,58.81
2022-08-03T02:38:39.897Z,58.91
2022-08-03T02:39:39.933Z,59.39
2022-08-03T02:40:40.442Z,59.10
2022-08-03T02:41:40.002Z,59.10
2022-08-03T02:42:40.036Z,59.39
2022-08-03T02:44:06.056Z,59.39
2022-08-03T02:44:40.115Z,59.30
2022-08-03T02:46:40.181Z,59.36
2022-08-03T02:47:54.279Z,59.20
2022-08-03T02:48:40.257Z,59.39
2022-08-03T02:49:49.960Z,59.39
2022-08-03T02:50:40.323Z,59.10
2022-08-03T02:51:40.606Z,59.39
2022-08-03T02:52:40.404Z,59.27
2022-08-03T02:53:40.439Z,59.36
2022-08-03T02:54:40.729Z,59.20
2022-08-03T02:55:43.168Z,59.30
2022-08-03T02:56:40.588Z,59.30
2022-08-03T02:57:40.573Z,59.20
2022-08-03T02:58:40.609Z,59.10
2022-08-03T02:59:40.649Z,59.20
2022-08-03T03:00:40.849Z,59.20
2022-08-03T03:01:40.965Z,59.27
2022-08-03T03:02:40.753Z,59.30
2022-08-03T03:03:45.040Z,59.39
2022-08-03T03:05:01.311Z,59.39
2022-08-03T03:05:53.294Z,59.39
2022-08-03T03:06:40.895Z,59.20
2022-08-03T03:07:51.199Z,59.27
2022-08-03T03:08:41.267Z,59.17
2022-08-03T03:09:43.252Z,59.39
2022-08-03T03:10:41.038Z,59.27
2022-08-03T03:11:41.075Z,59.17
2022-08-03T03:12:41.120Z,59.17
2022-08-03T03:13:41.248Z,59.17
2022-08-03T03:14:41.183Z,59.20
2022-08-03T03:15:41.479Z,59.27
2022-08-03T03:16:41.252Z,59.46
2022-08-03T03:17:41.297Z,59.36
2022-08-03T03:18:41.331Z,59.27
2022-08-03T03:19:41.361Z,59.27
2022-08-03T03:20:41.396Z,59.36
2022-08-03T03:21:41.433Z,59.36
2022-08-03T03:22:41.767Z,59.17
2022-08-03T03:23:41.511Z,59.56
2022-08-03T03:24:41.541Z,59.56
2022-08-03T03:25:41.583Z,59.56
2022-08-03T03:26:42.527Z,59.36
2022-08-03T03:27:41.651Z,59.56
2022-08-03T03:28:41.684Z,59.66
2022-08-03T03:29:41.975Z,59.17
2022-08-03T03:30:41.767Z,59.27
2022-08-03T03:31:41.804Z,59.36
2022-08-03T03:32:41.824Z,59.36
2022-08-03T03:33:41.860Z,59.36
2022-08-03T03:34:41.897Z,59.36
2022-08-03T03:35:42.244Z,59.36
2022-08-03T03:36:41.970Z,59.46
2022-08-03T03:37:42.007Z,59.46
2022-08-03T03:38:42.045Z,59.46
2022-08-03T03:39:42.078Z,59.17
2022-08-03T03:40:42.138Z,59.56
2022-08-03T03:41:42.398Z,59.36
2022-08-03T03:42:42.293Z,59.07
2022-08-03T03:43:42.226Z,59.46
2022-08-03T03:45:42.289Z,59.56
2022-08-03T03:46:42.326Z,59.56
2022-08-03T03:47:42.614Z,59.75
2022-08-03T03:48:42.396Z,59.85
2022-08-03T03:49:42.434Z,59.66
2022-08-03T03:50:42.471Z,59.66
2022-08-03T03:51:42.505Z,59.56
2022-08-03T03:52:42.547Z,59.66
2022-08-03T03:53:42.579Z,59.66
2022-08-03T03:54:42.914Z,59.66
2022-08-03T03:55:59.389Z,59.85
2022-08-03T03:56:42.687Z,59.66
2022-08-03T03:57:42.717Z,59.56
2022-08-03T03:58:42.763Z,59.56
2022-08-03T03:59:42.796Z,59.56
2022-08-03T04:00:42.864Z,59.66
2022-08-03T04:01:43.162Z,59.56
2022-08-03T04:02:42.903Z,59.66
2022-08-03T04:03:42.933Z,59.66
2022-08-03T04:04:42.970Z,59.66
2022-08-03T04:05:45.933Z,59.56
2022-08-03T04:06:43.046Z,59.56
2022-08-03T04:07:43.100Z,59.66
2022-08-03T04:08:43.428Z,59.66
2022-08-03T04:09:43.146Z,59.66
2022-08-03T04:10:43.185Z,59.85
2022-08-03T04:11:43.219Z,59.66
2022-08-03T04:12:50.454Z,59.66
2022-08-03T04:13:43.289Z,59.56
2022-08-03T04:14:43.325Z,59.66
2022-08-03T04:15:43.612Z,59.56
2022-08-03T04:16:44.081Z,59.56
2022-08-03T04:17:43.439Z,60.34
2022-08-03T04:18:43.478Z,60.24
2022-08-03T04:19:43.509Z,59.75
2022-08-03T04:21:43.575Z,59.66
2022-08-03T04:22:43.920Z,59.66
2022-08-03T04:23:43.648Z,59.66
2022-08-03T04:24:43.692Z,60.24
2022-08-03T04:25:43.721Z,59.75
2022-08-03T04:26:43.756Z,59.75
2022-08-03T04:27:43.790Z,59.66
2022-08-03T04:28:43.823Z,59.66
2022-08-03T04:29:46.381Z,59.75
2022-08-03T04:30:43.896Z,59.56
2022-08-03T04:31:43.930Z,59.66
2022-08-03T04:32:45.940Z,59.66
2022-08-03T04:33:44.017Z,59.66
2022-08-03T04:34:44.138Z,59.66
2022-08-03T04:36:02.266Z,59.56
2022-08-03T04:36:44.213Z,60.24
2022-08-03T04:37:44.155Z,59.85
2022-08-03T04:38:44.182Z,59.66
2022-08-03T04:39:44.222Z,60.24
2022-08-03T04:40:44.398Z,59.66
2022-08-03T04:42:02.331Z,59.75
2022-08-03T04:42:44.326Z,60.24
2022-08-03T04:43:44.368Z,60.05
2022-08-03T04:45:44.432Z,60.05
2022-08-03T04:46:46.699Z,60.34
2022-08-03T04:47:44.502Z,60.34
2022-08-03T04:48:44.946Z,60.05
2022-08-03T04:49:44.575Z,60.24
2022-08-03T04:50:44.612Z,60.34
2022-08-03T04:51:44.644Z,60.24
2022-08-03T04:52:44.684Z,60.05
2022-08-03T04:53:44.721Z,60.05
2022-08-03T04:54:48.761Z,60.34
2022-08-03T04:55:44.988Z,60.34
2022-08-03T04:57:44.861Z,59.95
2022-08-03T04:58:44.899Z,60.05
2022-08-03T04:59:44.934Z,60.05
2022-08-03T05:00:45.221Z,59.95
2022-08-03T05:01:45.100Z,59.95
2022-08-03T05:02:45.041Z,60.05
2022-08-03T05:03:45.077Z,60.24
2022-08-03T05:04:45.150Z,60.05
2022-08-03T05:05:49.750Z,60.05
2022-08-03T05:06:48.384Z,60.14
2022-08-03T05:07:45.218Z,60.14
2022-08-03T05:08:46.979Z,60.05
2022-08-03T05:09:50.154Z,59.95
2022-08-03T05:10:45.325Z,60.05
2022-08-03T05:11:45.360Z,60.05
2022-08-03T05:12:45.396Z,60.14
2022-08-03T05:13:45.680Z,59.95
2022-08-03T05:14:45.464Z,59.85
2022-08-03T05:15:45.502Z,59.85
2022-08-03T05:16:45.537Z,60.14
2022-08-03T05:17:45.578Z,60.05
2022-08-03T05:18:45.780Z,60.14
2022-08-03T05:19:45.648Z,59.85
2022-08-03T05:20:45.951Z,60.05
2022-08-03T05:21:51.991Z,60.05
2022-08-03T05:23:45.805Z,60.24
2022-08-03T05:24:45.824Z,59.95
2022-08-03T05:25:49.731Z,60.14
2022-08-03T05:26:45.920Z,60.14
2022-08-03T05:27:46.183Z,59.85
2022-08-03T05:28:50.874Z,59.95
2022-08-03T05:29:46.001Z,60.05
2022-08-03T05:30:46.139Z,60.14
2022-08-03T05:31:46.088Z,59.95
2022-08-03T05:32:46.114Z,60.24
2022-08-03T05:33:46.145Z,60.14
2022-08-03T05:34:46.434Z,59.95
2022-08-03T05:35:57.348Z,59.85
2022-08-03T05:36:47.191Z,60.14
2022-08-03T05:37:54.565Z,59.95
2022-08-03T05:38:46.325Z,60.14
2022-08-03T05:39:46.370Z,60.14
2022-08-03T05:40:46.856Z,60.34
2022-08-03T05:41:46.431Z,59.95
2022-08-03T05:42:46.466Z,60.14
2022-08-03T05:43:46.501Z,60.24
2022-08-03T05:44:46.540Z,59.95
2022-08-03T05:46:46.613Z,60.14
2022-08-03T05:47:46.949Z,60.14
2022-08-03T05:48:46.682Z,59.85
2022-08-03T05:49:46.717Z,60.05
2022-08-03T05:50:46.755Z,60.14
2022-08-03T05:51:46.791Z,59.95
2022-08-03T05:52:46.823Z,60.14
2022-08-03T05:53:47.159Z,59.75
2022-08-03T05:54:55.308Z,59.75
2022-08-03T05:55:49.326Z,60.05
2022-08-03T05:56:46.967Z,59.95
2022-08-03T05:57:47.003Z,59.56
2022-08-03T05:58:47.484Z,59.95
2022-08-03T05:59:53.960Z,60.14
2022-08-03T06:00:47.110Z,59.95
2022-08-03T06:01:47.247Z,60.17
2022-08-03T06:02:47.183Z,59.95
2022-08-03T06:03:47.218Z,59.88
2022-08-03T06:04:47.252Z,60.14
2022-08-03T06:06:00.089Z,59.85
2022-08-03T06:06:47.333Z,59.78
2022-08-03T06:07:47.468Z,60.24
2022-08-03T06:08:47.395Z,60.17
2022-08-03T06:10:35.310Z,59.98
2022-08-03T06:10:47.476Z,60.17
2022-08-03T06:11:47.510Z,60.36
2022-08-03T06:12:47.944Z,60.36
2022-08-03T06:13:47.578Z,59.78
2022-08-03T06:14:47.616Z,59.49
2022-08-03T06:15:47.647Z,59.69
2022-08-03T06:16:47.682Z,59.69
2022-08-03T06:17:47.727Z,59.49
2022-08-03T06:18:47.766Z,59.39
2022-08-03T06:19:48.049Z,59.30
2022-08-03T06:20:49.401Z,59.59
2022-08-03T06:21:47.869Z,59.59
2022-08-03T06:22:50.916Z,59.39
2022-08-03T06:23:54.875Z,59.30
2022-08-03T06:24:53.521Z,59.30
2022-08-03T06:25:48.006Z,59.30
2022-08-03T06:26:48.293Z,59.30
2022-08-03T06:28:52.777Z,59.30
2022-08-03T06:29:48.150Z,59.30
2022-08-03T06:30:48.189Z,59.30
2022-08-03T06:31:48.234Z,59.30
2022-08-03T06:32:51.946Z,59.30
2022-08-03T06:34:32.505Z,59.30
2022-08-03T06:34:48.332Z,59.20
2022-08-03T06:35:48.368Z,59.27
2022-08-03T06:36:48.410Z,59.20
2022-08-03T06:37:48.437Z,59.30
2022-08-03T06:38:48.481Z,59.20
2022-08-03T06:39:48.511Z,59.20
2022-08-03T06:40:48.825Z,59.20
2022-08-03T06:41:48.581Z,59.39
2022-08-03T06:42:48.620Z,59.39
2022-08-03T06:44:02.958Z,59.30
2022-08-03T06:44:48.692Z,59.39
2022-08-03T06:45:48.725Z,59.30
2022-08-03T06:46:48.763Z,59.39
2022-08-03T06:47:49.209Z,59.39
2022-08-03T06:48:48.839Z,59.39
2022-08-03T06:50:12.592Z,59.20
2022-08-03T06:50:48.919Z,59.20
2022-08-03T06:52:04.442Z,59.39
2022-08-03T06:52:48.982Z,59.10
2022-08-03T06:53:49.012Z,59.39
2022-08-03T06:54:49.302Z,59.49
2022-08-03T06:55:54.176Z,59.39
2022-08-03T06:56:49.126Z,59.10
2022-08-03T06:57:49.159Z,59.10
2022-08-03T06:58:49.195Z,59.00
2022-08-03T07:00:07.918Z,59.00
2022-08-03T07:00:49.281Z,59.10
2022-08-03T07:01:49.712Z,58.91
2022-08-03T07:02:49.343Z,59.20
2022-08-03T07:04:49.413Z,59.20
2022-08-03T07:05:49.472Z,59.10
2022-08-03T07:06:49.484Z,59.10
2022-08-03T07:07:49.524Z,59.30
2022-08-03T07:08:52.903Z,59.39
2022-08-03T07:09:57.558Z,59.20
2022-08-03T07:11:49.693Z,59.20
2022-08-03T07:12:55.717Z,59.20
2022-08-03T07:14:49.777Z,59.20
2022-08-03T07:15:55.430Z,59.20
2022-08-03T07:16:49.856Z,59.30
2022-08-03T07:18:49.918Z,58.81
2022-08-03T07:19:49.951Z,58.91
2022-08-03T07:20:49.989Z,59.00
2022-08-03T07:21:50.278Z,58.94
2022-08-03T07:22:50.061Z,58.91
2022-08-03T07:24:50.139Z,58.71
2022-08-03T07:25:50.481Z,58.91
2022-08-03T07:26:50.209Z,58.61
2022-08-03T07:28:50.528Z,58.51
2022-08-03T07:29:50.312Z,59.00
2022-08-03T07:30:50.352Z,58.81
2022-08-03T07:31:50.391Z,58.91
2022-08-03T07:32:50.893Z,58.71
2022-08-03T07:33:50.461Z,58.64
2022-08-03T07:34:50.754Z,58.81
2022-08-03T07:35:50.536Z,58.84
2022-08-03T07:36:50.568Z,58.51
2022-08-03T07:37:54.086Z,58.74
2022-08-03T07:39:50.701Z,58.74
2022-08-03T07:40:50.715Z,58.84
2022-08-03T07:41:50.999Z,58.74
2022-08-03T07:42:52.146Z,58.61
2022-08-03T07:43:50.850Z,58.54
2022-08-03T07:44:50.867Z,58.84
2022-08-03T07:45:50.897Z,58.91
2022-08-03T07:46:50.933Z,58.51
2022-08-03T07:47:53.793Z,58.94
2022-08-03T07:48:51.318Z,58.94
2022-08-03T07:49:51.046Z,58.84
2022-08-03T07:50:51.083Z,58.74
2022-08-03T07:51:51.120Z,59.13
2022-08-03T07:52:51.152Z,59.03
2022-08-03T07:53:51.197Z,59.00
2022-08-03T07:54:51.231Z,59.03
2022-08-03T07:55:51.516Z,59.03
2022-08-03T07:56:51.327Z,59.03
2022-08-03T07:57:51.334Z,59.03
2022-08-03T07:58:51.371Z,58.94
2022-08-03T08:00:01.404Z,58.84
2022-08-03T08:00:51.491Z,58.74
2022-08-03T08:01:51.578Z,58.84
2022-08-03T08:02:51.772Z,58.64
2022-08-03T08:03:52.711Z,58.64
2022-08-03T08:04:51.590Z,58.64
2022-08-03T08:05:51.624Z,58.74
2022-08-03T08:06:51.662Z,58.64
2022-08-03T08:08:51.731Z,58.64
2022-08-03T08:09:52.070Z,58.35
2022-08-03T08:10:56.902Z,58.25
2022-08-03T08:11:51.861Z,58.35
2022-08-03T08:12:51.890Z,58.06
2022-08-03T08:13:51.920Z,58.25
2022-08-03T08:14:51.958Z,58.35
2022-08-03T08:15:51.989Z,58.35
2022-08-03T08:16:52.426Z,58.35
2022-08-03T08:17:52.066Z,58.35
2022-08-03T08:19:53.326Z,58.15
2022-08-03T08:20:52.173Z,58.45
2022-08-03T08:22:52.253Z,58.25
2022-08-03T08:23:57.797Z,58.35
2022-08-03T08:24:52.315Z,58.25
2022-08-03T08:25:52.355Z,57.86
2022-08-03T08:26:52.388Z,58.25
2022-08-03T08:28:29.013Z,58.15
2022-08-03T08:28:52.470Z,58.15
2022-08-03T08:29:55.207Z,58.06
2022-08-03T08:30:52.845Z,58.15
2022-08-03T08:31:52.578Z,58.15
2022-08-03T08:32:52.608Z,58.06
2022-08-03T08:34:07.962Z,57.96
2022-08-03T08:34:52.695Z,58.25
2022-08-03T08:35:52.716Z,58.25
2022-08-03T08:36:52.757Z,58.25
2022-08-03T08:37:53.091Z,58.45
2022-08-03T08:38:53.037Z,58.25
2022-08-03T08:39:52.863Z,58.25
2022-08-03T08:40:52.906Z,58.15
2022-08-03T08:41:53.392Z,58.35
2022-08-03T08:42:59.299Z,58.45
2022-08-03T08:43:58.143Z,58.25
2022-08-03T08:44:53.296Z,58.25
2022-08-03T08:45:53.088Z,58.35
2022-08-03T08:46:53.146Z,58.15
2022-08-03T08:47:55.759Z,58.15
2022-08-03T08:48:53.356Z,58.35
2022-08-03T08:50:08.970Z,58.45
2022-08-03T08:50:53.265Z,58.09
2022-08-03T08:52:00.555Z,58.45
2022-08-03T08:52:53.333Z,58.25
2022-08-03T08:53:53.380Z,58.25
2022-08-03T08:54:53.441Z,58.09
2022-08-03T08:55:57.191Z,58.09
2022-08-03T08:56:53.488Z,58.06
2022-08-03T08:57:53.522Z,58.09
2022-08-03T08:58:53.855Z,57.79
2022-08-03T08:59:57.249Z,57.70
2022-08-03T09:00:53.686Z,58.09
2022-08-03T09:01:53.669Z,57.89
2022-08-03T09:02:53.708Z,57.70
2022-08-03T09:03:53.745Z,57.70
2022-08-03T09:04:53.783Z,57.70
2022-08-03T09:05:56.132Z,57.70
2022-08-03T09:07:17.665Z,57.89
2022-08-03T09:07:53.887Z,57.86
2022-08-03T09:08:53.924Z,57.79
2022-08-03T09:10:11.295Z,57.79
2022-08-03T09:10:53.997Z,57.89
2022-08-03T09:12:01.151Z,57.89
2022-08-03T09:12:54.068Z,57.70
2022-08-03T09:13:54.106Z,57.89
2022-08-03T09:15:14.837Z,57.70
2022-08-03T09:16:01.128Z,57.79
2022-08-03T09:16:54.216Z,57.70
2022-08-03T09:17:54.253Z,57.79
2022-08-03T09:18:54.588Z,57.89
2022-08-03T09:20:03.575Z,57.70
2022-08-03T09:20:54.362Z,57.70
2022-08-03T09:21:54.397Z,57.79
2022-08-03T09:22:54.435Z,57.89
2022-08-03T09:24:02.203Z,57.79
2022-08-03T09:25:21.679Z,57.79
2022-08-03T09:25:54.547Z,58.09
2022-08-03T09:26:54.579Z,57.70
2022-08-03T09:27:54.619Z,58.09
2022-08-03T09:29:54.692Z,57.99
2022-08-03T09:30:55.030Z,57.99
2022-08-03T09:32:54.806Z,57.79
2022-08-03T09:33:54.846Z,57.89
2022-08-03T09:34:58.096Z,57.79
2022-08-03T09:35:57.485Z,57.60
2022-08-03T09:36:55.942Z,57.60
2022-08-03T09:38:12.106Z,57.60
2022-08-03T09:38:55.022Z,57.79
2022-08-03T09:39:55.613Z,57.70
2022-08-03T09:40:59.517Z,57.79
2022-08-03T09:41:55.132Z,57.89
2022-08-03T09:42:55.169Z,57.79
2022-08-03T09:43:55.204Z,57.60
2022-08-03T09:44:55.492Z,57.50
2022-08-03T09:45:55.382Z,57.40
2022-08-03T09:46:55.318Z,57.40
2022-08-03T09:47:55.404Z,57.40
2022-08-03T09:48:55.453Z,57.40
2022-08-03T09:49:55.425Z,57.50
2022-08-03T09:50:58.688Z,57.70
2022-08-03T09:52:32.115Z,57.70
2022-08-03T09:52:55.540Z,57.70
2022-08-03T09:53:58.528Z,57.70
2022-08-03T09:54:55.610Z,57.40
2022-08-03T09:56:36.494Z,57.40
2022-08-03T09:56:55.679Z,57.70
2022-08-03T09:57:55.729Z,57.79
2022-08-03T09:58:56.009Z,57.79
2022-08-03T10:00:04.435Z,57.60
2022-08-03T10:00:55.983Z,57.89
2022-08-03T10:01:55.868Z,57.40
2022-08-03T10:02:55.903Z,57.79
2022-08-03T10:04:04.152Z,57.50
2022-08-03T10:04:55.979Z,57.50
2022-08-03T10:06:56.048Z,57.70
2022-08-03T10:07:56.086Z,57.60
2022-08-03T10:08:56.123Z,57.79
2022-08-03T10:09:56.172Z,57.60
2022-08-03T10:10:56.252Z,57.60
2022-08-03T10:11:56.236Z,57.60
2022-08-03T10:12:56.521Z,57.60
2022-08-03T10:13:58.054Z,57.60
2022-08-03T10:14:56.366Z,57.60
2022-08-03T10:16:22.880Z,57.89
2022-08-03T10:16:56.422Z,57.60
2022-08-03T10:17:56.463Z,57.89
2022-08-03T10:18:56.491Z,57.60
2022-08-03T10:19:56.830Z,57.89
2022-08-03T10:20:56.566Z,57.50
2022-08-03T10:21:56.615Z,57.60
2022-08-03T10:22:56.639Z,57.60
2022-08-03T10:23:56.678Z,57.50
2022-08-03T10:24:56.718Z,57.70
2022-08-03T10:26:57.040Z,57.21
2022-08-03T10:27:56.833Z,57.70
2022-08-03T10:28:56.864Z,57.53
2022-08-03T10:29:56.909Z,57.70
2022-08-03T10:30:56.937Z,57.40
2022-08-03T10:31:58.152Z,57.60
2022-08-03T10:32:57.010Z,57.63
2022-08-03T10:33:57.299Z,57.60
2022-08-03T10:35:00.239Z,57.63
2022-08-03T10:35:57.159Z,57.73
2022-08-03T10:36:57.154Z,57.63
2022-08-03T10:38:57.233Z,57.53
2022-08-03T10:39:57.265Z,57.63
2022-08-03T10:40:59.217Z,57.82
2022-08-03T10:42:57.526Z,57.31
2022-08-03T10:43:57.418Z,57.82
2022-08-03T10:44:57.454Z,57.63
2022-08-03T10:45:57.553Z,57.82
2022-08-03T10:46:57.528Z,57.43
2022-08-03T10:47:57.866Z,57.73
2022-08-03T10:48:57.681Z,57.82
2022-08-03T10:49:57.761Z,57.82
2022-08-03T10:50:57.673Z,57.73
2022-08-03T10:51:57.710Z,57.63
2022-08-03T10:52:57.744Z,57.73
2022-08-03T10:53:57.910Z,57.63
2022-08-03T10:54:58.278Z,57.73
2022-08-03T10:55:57.859Z,57.73
2022-08-03T10:56:58.415Z,57.63
2022-08-03T10:57:58.760Z,57.63
2022-08-03T10:59:58.055Z,57.34
2022-08-03T11:00:58.440Z,57.43
2022-08-03T11:02:00.023Z,57.34
2022-08-03T11:02:58.120Z,57.53
2022-08-03T11:03:58.155Z,57.43
2022-08-03T11:04:58.208Z,57.92
2022-08-03T11:05:58.226Z,57.34
2022-08-03T11:06:58.571Z,57.34
2022-08-03T11:07:58.320Z,57.34
2022-08-03T11:08:58.336Z,57.43
2022-08-03T11:09:58.403Z,57.24
2022-08-03T11:10:58.462Z,57.24
2022-08-03T11:11:58.447Z,57.24
2022-08-03T11:12:58.787Z,57.53
2022-08-03T11:13:58.524Z,57.24
2022-08-03T11:14:58.703Z,57.34
2022-08-03T11:16:00.131Z,57.24
2022-08-03T11:16:58.634Z,57.14
2022-08-03T11:17:58.666Z,57.14
2022-08-03T11:18:58.759Z,57.14
2022-08-03T11:19:59.120Z,57.34
2022-08-03T11:20:58.794Z,57.34
2022-08-03T11:21:58.869Z,57.53
2022-08-03T11:22:58.864Z,57.43
2022-08-03T11:24:05.164Z,57.34
2022-08-03T11:24:58.933Z,57.34
2022-08-03T11:25:58.967Z,57.24
2022-08-03T11:27:03.037Z,57.34
2022-08-03T11:27:59.043Z,57.43
2022-08-03T11:28:59.078Z,57.53
2022-08-03T11:29:59.127Z,57.34
2022-08-03T11:30:59.150Z,57.53
2022-08-03T11:31:59.208Z,57.56
2022-08-03T11:32:59.228Z,57.53
2022-08-03T11:33:59.512Z,57.43
2022-08-03T11:34:59.300Z,57.34
2022-08-03T11:35:59.342Z,57.53
2022-08-03T11:36:59.374Z,57.34
2022-08-03T11:38:03.025Z,57.34
2022-08-03T11:38:59.463Z,57.34
2022-08-03T11:39:59.484Z,57.34
2022-08-03T11:40:59.771Z,57.24
2022-08-03T11:41:59.564Z,57.34
2022-08-03T11:42:59.646Z,57.24
2022-08-03T11:43:59.632Z,57.53
2022-08-03T11:44:59.685Z,57.53
2022-08-03T11:45:59.710Z,57.63
2022-08-03T11:46:59.749Z,57.73
2022-08-03T11:48:00.084Z,57.63
2022-08-03T11:48:59.871Z,57.53
2022-08-03T11:49:59.856Z,57.63
2022-08-03T11:50:59.916Z,57.63
2022-08-03T11:51:59.933Z,57.63
2022-08-03T11:52:59.977Z,57.73
2022-08-03T11:54:00.010Z,57.26
2022-08-03T11:55:00.405Z,57.24
2022-08-03T11:56:00.098Z,57.75
2022-08-03T11:57:00.137Z,56.97
2022-08-03T11:59:09.396Z,56.95
2022-08-03T11:59:20.154Z,57.07
2022-08-03T12:00:00.240Z,56.97
2022-08-03T12:01:00.266Z,57.17
2022-08-03T12:02:00.601Z,57.17
2022-08-03T12:05:00.417Z,56.68
2022-08-03T12:06:00.453Z,56.68
2022-08-03T12:07:00.592Z,56.97
2022-08-03T12:08:03.596Z,56.77
2022-08-03T12:09:00.877Z,56.77
2022-08-03T12:10:00.684Z,56.68
2022-08-03T12:11:00.644Z,56.97
2022-08-03T12:12:01.355Z,56.77
2022-08-03T12:13:00.769Z,56.77
2022-08-03T12:14:48.748Z,56.87
2022-08-03T12:15:00.782Z,56.87
2022-08-03T12:16:01.125Z,56.77
2022-08-03T12:17:00.858Z,56.77
2022-08-03T12:18:01.081Z,56.87
2022-08-03T12:19:00.936Z,56.87
2022-08-03T12:20:00.974Z,56.77
2022-08-03T12:21:01.147Z,56.77
2022-08-03T12:23:01.404Z,56.87
2022-08-03T12:24:01.129Z,56.97
2022-08-03T12:25:01.169Z,56.87
2022-08-03T12:26:01.194Z,56.68
2022-08-03T12:27:01.251Z,56.97
2022-08-03T12:28:01.277Z,56.97
2022-08-03T12:30:01.347Z,56.97
2022-08-03T12:31:01.746Z,56.87
2022-08-03T12:32:01.486Z,56.97
2022-08-03T12:33:01.462Z,56.97
2022-08-03T12:34:01.497Z,56.87
2022-08-03T12:35:02.298Z,56.77
2022-08-03T12:36:01.573Z,56.77
2022-08-03T12:37:01.605Z,57.17
2022-08-03T12:38:01.944Z,56.68
2022-08-03T12:39:01.687Z,56.77
2022-08-03T12:40:09.366Z,56.77
2022-08-03T12:41:01.756Z,56.77
2022-08-03T12:42:01.800Z,56.77
2022-08-03T12:43:01.874Z,56.97
2022-08-03T12:44:01.870Z,56.97
2022-08-03T12:45:02.211Z,56.77
2022-08-03T12:46:01.996Z,56.58
2022-08-03T12:47:01.978Z,57.17
2022-08-03T12:48:02.021Z,56.97
2022-08-03T12:49:02.188Z,56.97
2022-08-03T12:50:02.115Z,57.07
2022-08-03T12:51:02.188Z,56.97
2022-08-03T12:53:02.579Z,56.97
2022-08-03T12:54:02.281Z,56.87
2022-08-03T12:55:02.289Z,56.97
2022-08-03T12:56:05.109Z,56.77
2022-08-03T12:57:02.407Z,56.97
2022-08-03T12:58:02.391Z,56.97
2022-08-03T12:59:02.429Z,56.87
2022-08-03T13:00:02.774Z,56.87
2022-08-03T13:01:05.170Z,56.87
2022-08-03T13:02:04.377Z,56.87
2022-08-03T13:03:38.348Z,56.87
2022-08-03T13:04:02.621Z,56.77
2022-08-03T13:05:02.733Z,56.97
2022-08-03T13:06:02.691Z,56.77
2022-08-03T13:07:03.466Z,57.36
2022-08-03T13:08:03.067Z,57.26
2022-08-03T13:09:02.814Z,57.17
2022-08-03T13:10:07.859Z,57.26
2022-08-03T13:11:03.285Z,57.07
2022-08-03T13:12:02.914Z,56.77
2022-08-03T13:13:03.011Z,56.68
2022-08-03T13:14:03.298Z,56.77
2022-08-03T13:15:03.027Z,56.68
2022-08-03T13:16:03.140Z,56.68
2022-08-03T13:17:03.102Z,56.68
2022-08-03T13:18:03.141Z,56.87
2022-08-03T13:19:03.177Z,56.71
2022-08-03T13:20:03.214Z,56.77
2022-08-03T13:21:03.555Z,56.71
2022-08-03T13:22:04.747Z,56.48
2022-08-03T13:23:03.331Z,56.77
2022-08-03T13:24:03.433Z,56.51
2022-08-03T13:25:03.401Z,56.81
2022-08-03T13:26:03.437Z,56.81
2022-08-03T13:28:01.054Z,56.81
2022-08-03T13:28:11.028Z,56.32
2022-08-03T13:30:03.661Z,56.51
2022-08-03T13:31:03.641Z,56.41
2022-08-03T13:34:04.090Z,56.71
2022-08-03T13:35:03.896Z,56.61
2022-08-03T13:36:03.823Z,56.22
2022-08-03T13:37:09.230Z,56.12
2022-08-03T13:40:05.482Z,56.32